sensor_id;sensor_type;location;lat;lon;timestamp;P1;durP1;ratioP1;P2;durP2;ratioP2
11596;SDS011;5854;48.072;16.286;2024-02-16T00:02:01;16.98;;;10.00;;
11596;SDS011;5854;48.072;16.286;2024-02-16T00:04:28;13.35;;;8.57;;
11596;SDS011;5854;48.072;16.286;2024-02-16T00:06:56;13.40;;;9.48;;
11596;SDS011;5854;48.072;16.286;2024-02-16T00:09:23;12.07;;;9.00;;
11596;SDS011;5854;48.072;16.286;2024-02-16T00:11:51;15.38;;;8.98;;
11596;SDS011;5854;48.072;16.286;2024-02-16T00:14:20;19.75;;;8.77;;
11596;SDS011;5854;48.072;16.286;2024-02-16T00:16:47;11.73;;;9.68;;
11596;SDS011;5854;48.072;16.286;2024-02-16T00:19:15;13.85;;;9.73;;
11596;SDS011;5854;48.072;16.286;2024-02-16T00:21:42;14.77;;;8.77;;
11596;SDS011;5854;48.072;16.286;2024-02-16T00:24:09;13.63;;;9.48;;
11596;SDS011;5854;48.072;16.286;2024-02-16T00:26:37;11.48;;;8.63;;
11596;SDS011;5854;48.072;16.286;2024-02-16T00:29:06;12.52;;;9.27;;
11596;SDS011;5854;48.072;16.286;2024-02-16T00:31:34;11.07;;;8.98;;
11596;SDS011;5854;48.072;16.286;2024-02-16T00:34:01;11.85;;;9.80;;
11596;SDS011;5854;48.072;16.286;2024-02-16T00:36:28;13.85;;;9.88;;
11596;SDS011;5854;48.072;16.286;2024-02-16T00:38:56;14.57;;;9.73;;
11596;SDS011;5854;48.072;16.286;2024-02-16T00:41:23;17.33;;;9.52;;
11596;SDS011;5854;48.072;16.286;2024-02-16T00:43:51;18.05;;;10.10;;
11596;SDS011;5854;48.072;16.286;2024-02-16T00:46:19;13.02;;;10.15;;
11596;SDS011;5854;48.072;16.286;2024-02-16T00:48:48;14.57;;;9.70;;
11596;SDS011;5854;48.072;16.286;2024-02-16T00:51:15;13.98;;;9.55;;
11596;SDS011;5854;48.072;16.286;2024-02-16T00:53:42;17.20;;;9.77;;
11596;SDS011;5854;48.072;16.286;2024-02-16T00:56:10;13.55;;;9.40;;
11596;SDS011;5854;48.072;16.286;2024-02-16T00:58:39;11.73;;;9.77;;
11596;SDS011;5854;48.072;16.286;2024-02-16T01:01:08;12.60;;;9.48;;
11596;SDS011;5854;48.072;16.286;2024-02-16T01:03:38;16.48;;;10.27;;
11596;SDS011;5854;48.072;16.286;2024-02-16T01:06:06;11.35;;;9.60;;
11596;SDS011;5854;48.072;16.286;2024-02-16T01:08:34;14.88;;;10.15;;
11596;SDS011;5854;48.072;16.286;2024-02-16T01:11:01;16.48;;;9.77;;
11596;SDS011;5854;48.072;16.286;2024-02-16T01:13:28;19.50;;;11.02;;
11596;SDS011;5854;48.072;16.286;2024-02-16T01:15:57;15.95;;;10.55;;
11596;SDS011;5854;48.072;16.286;2024-02-16T01:18:25;16.02;;;10.73;;
11596;SDS011;5854;48.072;16.286;2024-02-16T01:20:55;19.15;;;11.25;;
11596;SDS011;5854;48.072;16.286;2024-02-16T01:23:23;16.00;;;11.52;;
11596;SDS011;5854;48.072;16.286;2024-02-16T01:25:50;17.38;;;10.00;;
11596;SDS011;5854;48.072;16.286;2024-02-16T01:28:17;13.45;;;11.10;;
11596;SDS011;5854;48.072;16.286;2024-02-16T01:30:44;11.55;;;9.27;;
11596;SDS011;5854;48.072;16.286;2024-02-16T01:33:12;11.45;;;8.82;;
11596;SDS011;5854;48.072;16.286;2024-02-16T01:35:39;18.67;;;11.32;;
11596;SDS011;5854;48.072;16.286;2024-02-16T01:38:08;10.30;;;9.27;;
11596;SDS011;5854;48.072;16.286;2024-02-16T01:40:35;16.08;;;9.73;;
11596;SDS011;5854;48.072;16.286;2024-02-16T01:43:03;15.07;;;9.63;;
11596;SDS011;5854;48.072;16.286;2024-02-16T01:45:30;17.58;;;10.20;;
11596;SDS011;5854;48.072;16.286;2024-02-16T01:47:57;18.58;;;9.85;;
11596;SDS011;5854;48.072;16.286;2024-02-16T01:50:25;11.95;;;9.13;;
11596;SDS011;5854;48.072;16.286;2024-02-16T01:52:54;12.45;;;9.35;;
11596;SDS011;5854;48.072;16.286;2024-02-16T01:55:23;18.85;;;10.55;;
11596;SDS011;5854;48.072;16.286;2024-02-16T01:57:51;13.63;;;9.65;;
11596;SDS011;5854;48.072;16.286;2024-02-16T02:00:18;12.52;;;9.57;;
11596;SDS011;5854;48.072;16.286;2024-02-16T02:02:46;17.08;;;9.65;;
11596;SDS011;5854;48.072;16.286;2024-02-16T02:05:13;13.85;;;9.60;;
11596;SDS011;5854;48.072;16.286;2024-02-16T02:07:41;12.98;;;9.25;;
11596;SDS011;5854;48.072;16.286;2024-02-16T02:10:09;13.80;;;9.60;;
11596;SDS011;5854;48.072;16.286;2024-02-16T02:12:39;11.80;;;9.00;;
11596;SDS011;5854;48.072;16.286;2024-02-16T02:15:07;14.88;;;10.68;;
11596;SDS011;5854;48.072;16.286;2024-02-16T02:17:36;15.13;;;9.30;;
11596;SDS011;5854;48.072;16.286;2024-02-16T02:20:04;12.90;;;10.02;;
11596;SDS011;5854;48.072;16.286;2024-02-16T02:22:37;13.40;;;9.88;;
11596;SDS011;5854;48.072;16.286;2024-02-16T02:25:04;16.88;;;10.43;;
11596;SDS011;5854;48.072;16.286;2024-02-16T02:27:35;15.40;;;9.80;;
11596;SDS011;5854;48.072;16.286;2024-02-16T02:30:03;20.00;;;11.20;;
11596;SDS011;5854;48.072;16.286;2024-02-16T02:32:32;11.93;;;10.20;;
11596;SDS011;5854;48.072;16.286;2024-02-16T02:34:59;17.83;;;10.18;;
11596;SDS011;5854;48.072;16.286;2024-02-16T02:37:27;16.85;;;11.02;;
11596;SDS011;5854;48.072;16.286;2024-02-16T02:39:55;13.95;;;9.98;;
11596;SDS011;5854;48.072;16.286;2024-02-16T02:42:23;13.25;;;9.10;;
11596;SDS011;5854;48.072;16.286;2024-02-16T02:44:50;11.40;;;8.93;;
11596;SDS011;5854;48.072;16.286;2024-02-16T02:47:17;18.20;;;9.88;;
11596;SDS011;5854;48.072;16.286;2024-02-16T02:49:44;12.50;;;8.90;;
11596;SDS011;5854;48.072;16.286;2024-02-16T02:52:12;11.57;;;9.35;;
11596;SDS011;5854;48.072;16.286;2024-02-16T02:54:39;18.55;;;9.13;;
11596;SDS011;5854;48.072;16.286;2024-02-16T02:57:08;15.77;;;9.77;;
11596;SDS011;5854;48.072;16.286;2024-02-16T02:59:35;14.35;;;8.73;;
11596;SDS011;5854;48.072;16.286;2024-02-16T03:02:02;9.73;;;8.02;;
11596;SDS011;5854;48.072;16.286;2024-02-16T03:04:30;12.65;;;8.63;;
11596;SDS011;5854;48.072;16.286;2024-02-16T03:06:58;11.52;;;8.23;;
11596;SDS011;5854;48.072;16.286;2024-02-16T03:09:25;11.63;;;9.85;;
11596;SDS011;5854;48.072;16.286;2024-02-16T03:11:53;15.40;;;10.05;;
11596;SDS011;5854;48.072;16.286;2024-02-16T03:14:21;12.25;;;9.05;;
11596;SDS011;5854;48.072;16.286;2024-02-16T03:16:49;18.77;;;10.50;;
11596;SDS011;5854;48.072;16.286;2024-02-16T03:19:16;8.73;;;7.80;;
11596;SDS011;5854;48.072;16.286;2024-02-16T03:21:44;14.57;;;8.60;;
11596;SDS011;5854;48.072;16.286;2024-02-16T03:24:13;12.30;;;8.40;;
11596;SDS011;5854;48.072;16.286;2024-02-16T03:26:41;12.43;;;8.88;;
11596;SDS011;5854;48.072;16.286;2024-02-16T03:29:08;10.55;;;7.53;;
11596;SDS011;5854;48.072;16.286;2024-02-16T03:31:36;10.50;;;8.63;;
11596;SDS011;5854;48.072;16.286;2024-02-16T03:34:04;8.43;;;7.55;;
11596;SDS011;5854;48.072;16.286;2024-02-16T03:36:31;10.32;;;7.28;;
11596;SDS011;5854;48.072;16.286;2024-02-16T03:38:59;11.52;;;7.78;;
11596;SDS011;5854;48.072;16.286;2024-02-16T03:41:26;14.82;;;8.98;;
11596;SDS011;5854;48.072;16.286;2024-02-16T03:43:53;13.25;;;7.55;;
11596;SDS011;5854;48.072;16.286;2024-02-16T03:46:22;12.15;;;8.13;;
11596;SDS011;5854;48.072;16.286;2024-02-16T03:48:51;8.88;;;7.95;;
11596;SDS011;5854;48.072;16.286;2024-02-16T03:51:18;11.48;;;7.53;;
11596;SDS011;5854;48.072;16.286;2024-02-16T03:53:46;9.73;;;6.93;;
11596;SDS011;5854;48.072;16.286;2024-02-16T03:56:17;10.27;;;7.95;;
11596;SDS011;5854;48.072;16.286;2024-02-16T03:58:46;7.97;;;7.00;;
11596;SDS011;5854;48.072;16.286;2024-02-16T04:01:13;8.10;;;6.63;;
11596;SDS011;5854;48.072;16.286;2024-02-16T04:03:40;7.68;;;6.88;;
11596;SDS011;5854;48.072;16.286;2024-02-16T04:06:09;9.85;;;7.95;;
11596;SDS011;5854;48.072;16.286;2024-02-16T04:08:36;9.05;;;8.00;;
11596;SDS011;5854;48.072;16.286;2024-02-16T04:11:04;12.20;;;8.18;;
11596;SDS011;5854;48.072;16.286;2024-02-16T04:13:31;11.90;;;8.27;;
11596;SDS011;5854;48.072;16.286;2024-02-16T04:15:59;11.10;;;7.97;;
11596;SDS011;5854;48.072;16.286;2024-02-16T04:18:26;14.65;;;9.23;;
11596;SDS011;5854;48.072;16.286;2024-02-16T04:20:53;12.55;;;9.27;;
11596;SDS011;5854;48.072;16.286;2024-02-16T04:23:22;11.52;;;8.30;;
11596;SDS011;5854;48.072;16.286;2024-02-16T04:25:49;9.98;;;8.38;;
11596;SDS011;5854;48.072;16.286;2024-02-16T04:28:17;11.38;;;8.70;;
11596;SDS011;5854;48.072;16.286;2024-02-16T04:30:44;9.73;;;8.07;;
11596;SDS011;5854;48.072;16.286;2024-02-16T04:33:11;9.95;;;8.73;;
11596;SDS011;5854;48.072;16.286;2024-02-16T04:35:39;10.18;;;8.05;;
11596;SDS011;5854;48.072;16.286;2024-02-16T04:38:06;11.98;;;8.05;;
11596;SDS011;5854;48.072;16.286;2024-02-16T04:40:36;11.55;;;8.40;;
11596;SDS011;5854;48.072;16.286;2024-02-16T04:43:03;12.00;;;9.68;;
11596;SDS011;5854;48.072;16.286;2024-02-16T04:45:31;12.43;;;8.30;;
11596;SDS011;5854;48.072;16.286;2024-02-16T04:48:01;14.27;;;8.68;;
11596;SDS011;5854;48.072;16.286;2024-02-16T04:50:30;15.55;;;8.98;;
11596;SDS011;5854;48.072;16.286;2024-02-16T04:52:58;10.38;;;7.60;;
11596;SDS011;5854;48.072;16.286;2024-02-16T04:55:26;13.45;;;9.60;;
11596;SDS011;5854;48.072;16.286;2024-02-16T04:57:54;12.07;;;9.80;;
11596;SDS011;5854;48.072;16.286;2024-02-16T05:00:21;17.20;;;10.35;;
11596;SDS011;5854;48.072;16.286;2024-02-16T05:02:50;17.88;;;9.63;;
11596;SDS011;5854;48.072;16.286;2024-02-16T05:05:17;15.02;;;9.15;;
11596;SDS011;5854;48.072;16.286;2024-02-16T05:07:46;15.13;;;9.80;;
11596;SDS011;5854;48.072;16.286;2024-02-16T05:10:15;15.90;;;10.35;;
11596;SDS011;5854;48.072;16.286;2024-02-16T05:12:44;10.68;;;8.85;;
11596;SDS011;5854;48.072;16.286;2024-02-16T05:15:13;12.90;;;9.00;;
11596;SDS011;5854;48.072;16.286;2024-02-16T05:17:42;12.63;;;8.60;;
11596;SDS011;5854;48.072;16.286;2024-02-16T05:20:13;11.10;;;8.43;;
11596;SDS011;5854;48.072;16.286;2024-02-16T05:22:41;12.23;;;8.52;;
11596;SDS011;5854;48.072;16.286;2024-02-16T05:25:10;9.07;;;7.88;;
11596;SDS011;5854;48.072;16.286;2024-02-16T05:27:38;11.32;;;8.45;;
11596;SDS011;5854;48.072;16.286;2024-02-16T05:30:06;15.98;;;9.35;;
11596;SDS011;5854;48.072;16.286;2024-02-16T05:32:39;13.27;;;8.95;;
11596;SDS011;5854;48.072;16.286;2024-02-16T05:35:07;12.52;;;8.88;;
11596;SDS011;5854;48.072;16.286;2024-02-16T05:37:38;12.50;;;8.13;;
11596;SDS011;5854;48.072;16.286;2024-02-16T05:40:08;10.55;;;8.68;;
11596;SDS011;5854;48.072;16.286;2024-02-16T05:42:46;13.10;;;9.27;;
11596;SDS011;5854;48.072;16.286;2024-02-16T05:45:14;12.45;;;8.50;;
11596;SDS011;5854;48.072;16.286;2024-02-16T05:47:43;13.32;;;8.85;;
11596;SDS011;5854;48.072;16.286;2024-02-16T05:50:12;8.63;;;7.72;;
11596;SDS011;5854;48.072;16.286;2024-02-16T05:52:40;11.95;;;9.07;;
11596;SDS011;5854;48.072;16.286;2024-02-16T05:55:08;10.13;;;7.93;;
11596;SDS011;5854;48.072;16.286;2024-02-16T05:57:36;10.75;;;8.27;;
11596;SDS011;5854;48.072;16.286;2024-02-16T06:00:05;12.52;;;8.95;;
11596;SDS011;5854;48.072;16.286;2024-02-16T06:02:34;13.68;;;7.43;;
11596;SDS011;5854;48.072;16.286;2024-02-16T06:05:04;8.13;;;7.13;;
11596;SDS011;5854;48.072;16.286;2024-02-16T06:07:32;10.00;;;8.35;;
11596;SDS011;5854;48.072;16.286;2024-02-16T06:10:00;11.88;;;8.20;;
11596;SDS011;5854;48.072;16.286;2024-02-16T06:12:30;10.05;;;7.95;;
11596;SDS011;5854;48.072;16.286;2024-02-16T06:14:58;10.25;;;7.97;;
11596;SDS011;5854;48.072;16.286;2024-02-16T06:17:25;7.35;;;6.65;;
11596;SDS011;5854;48.072;16.286;2024-02-16T06:19:52;11.73;;;6.68;;
11596;SDS011;5854;48.072;16.286;2024-02-16T06:22:21;7.05;;;6.35;;
11596;SDS011;5854;48.072;16.286;2024-02-16T06:24:48;6.47;;;5.93;;
11596;SDS011;5854;48.072;16.286;2024-02-16T06:27:15;10.05;;;7.95;;
11596;SDS011;5854;48.072;16.286;2024-02-16T06:29:42;11.75;;;6.65;;
11596;SDS011;5854;48.072;16.286;2024-02-16T06:32:10;7.38;;;5.30;;
11596;SDS011;5854;48.072;16.286;2024-02-16T06:34:37;8.82;;;7.72;;
11596;SDS011;5854;48.072;16.286;2024-02-16T06:37:05;6.15;;;5.65;;
11596;SDS011;5854;48.072;16.286;2024-02-16T06:39:33;12.00;;;8.00;;
11596;SDS011;5854;48.072;16.286;2024-02-16T06:42:00;8.80;;;6.10;;
11596;SDS011;5854;48.072;16.286;2024-02-16T06:44:28;7.45;;;6.72;;
11596;SDS011;5854;48.072;16.286;2024-02-16T06:46:55;10.18;;;6.57;;
11596;SDS011;5854;48.072;16.286;2024-02-16T06:49:23;8.63;;;7.53;;
11596;SDS011;5854;48.072;16.286;2024-02-16T06:51:50;8.85;;;7.18;;
11596;SDS011;5854;48.072;16.286;2024-02-16T06:54:17;8.27;;;6.97;;
11596;SDS011;5854;48.072;16.286;2024-02-16T06:56:46;10.93;;;7.65;;
11596;SDS011;5854;48.072;16.286;2024-02-16T06:59:16;19.43;;;9.43;;
11596;SDS011;5854;48.072;16.286;2024-02-16T07:01:43;10.88;;;8.68;;
11596;SDS011;5854;48.072;16.286;2024-02-16T07:04:10;9.65;;;7.65;;
11596;SDS011;5854;48.072;16.286;2024-02-16T07:06:37;12.07;;;8.98;;
11596;SDS011;5854;48.072;16.286;2024-02-16T07:09:05;8.20;;;7.40;;
11596;SDS011;5854;48.072;16.286;2024-02-16T07:11:33;10.95;;;7.95;;
11596;SDS011;5854;48.072;16.286;2024-02-16T07:14:01;13.20;;;8.73;;
11596;SDS011;5854;48.072;16.286;2024-02-16T07:16:31;13.55;;;8.68;;
11596;SDS011;5854;48.072;16.286;2024-02-16T07:18:59;9.40;;;8.27;;
11596;SDS011;5854;48.072;16.286;2024-02-16T07:21:26;22.08;;;8.73;;
11596;SDS011;5854;48.072;16.286;2024-02-16T07:23:55;13.15;;;10.68;;
11596;SDS011;5854;48.072;16.286;2024-02-16T07:26:22;11.48;;;9.30;;
11596;SDS011;5854;48.072;16.286;2024-02-16T07:28:50;15.45;;;11.07;;
11596;SDS011;5854;48.072;16.286;2024-02-16T07:31:18;12.82;;;10.77;;
11596;SDS011;5854;48.072;16.286;2024-02-16T07:33:45;19.15;;;10.68;;
11596;SDS011;5854;48.072;16.286;2024-02-16T07:36:13;13.55;;;10.02;;
11596;SDS011;5854;48.072;16.286;2024-02-16T07:38:43;18.30;;;12.07;;
11596;SDS011;5854;48.072;16.286;2024-02-16T07:41:10;18.15;;;11.43;;
11596;SDS011;5854;48.072;16.286;2024-02-16T07:43:37;14.38;;;10.85;;
11596;SDS011;5854;48.072;16.286;2024-02-16T07:46:05;15.25;;;11.45;;
11596;SDS011;5854;48.072;16.286;2024-02-16T07:48:34;18.23;;;11.23;;
11596;SDS011;5854;48.072;16.286;2024-02-16T07:51:02;16.65;;;12.10;;
11596;SDS011;5854;48.072;16.286;2024-02-16T07:53:30;19.38;;;11.55;;
11596;SDS011;5854;48.072;16.286;2024-02-16T07:55:58;15.10;;;11.93;;
11596;SDS011;5854;48.072;16.286;2024-02-16T07:58:26;16.77;;;11.50;;
11596;SDS011;5854;48.072;16.286;2024-02-16T08:00:53;16.80;;;12.15;;
11596;SDS011;5854;48.072;16.286;2024-02-16T08:03:20;26.40;;;13.38;;
11596;SDS011;5854;48.072;16.286;2024-02-16T08:05:49;16.15;;;11.43;;
11596;SDS011;5854;48.072;16.286;2024-02-16T08:08:16;19.58;;;11.32;;
11596;SDS011;5854;48.072;16.286;2024-02-16T08:10:43;21.33;;;10.85;;
11596;SDS011;5854;48.072;16.286;2024-02-16T08:13:11;17.02;;;10.70;;
11596;SDS011;5854;48.072;16.286;2024-02-16T08:15:38;18.48;;;9.55;;
11596;SDS011;5854;48.072;16.286;2024-02-16T08:18:06;15.20;;;10.80;;
11596;SDS011;5854;48.072;16.286;2024-02-16T08:20:36;16.15;;;10.95;;
11596;SDS011;5854;48.072;16.286;2024-02-16T08:23:05;12.85;;;9.35;;
11596;SDS011;5854;48.072;16.286;2024-02-16T08:25:32;15.13;;;11.30;;
11596;SDS011;5854;48.072;16.286;2024-02-16T08:28:00;15.52;;;10.35;;
11596;SDS011;5854;48.072;16.286;2024-02-16T08:30:27;12.32;;;9.60;;
11596;SDS011;5854;48.072;16.286;2024-02-16T08:32:55;19.42;;;11.45;;
11596;SDS011;5854;48.072;16.286;2024-02-16T08:35:23;21.85;;;10.48;;
11596;SDS011;5854;48.072;16.286;2024-02-16T08:37:50;20.45;;;9.68;;
11596;SDS011;5854;48.072;16.286;2024-02-16T08:40:19;19.88;;;11.13;;
11596;SDS011;5854;48.072;16.286;2024-02-16T08:42:46;13.88;;;9.23;;
11596;SDS011;5854;48.072;16.286;2024-02-16T08:45:13;10.48;;;8.88;;
11596;SDS011;5854;48.072;16.286;2024-02-16T08:47:42;12.13;;;8.55;;
11596;SDS011;5854;48.072;16.286;2024-02-16T08:50:09;16.50;;;8.80;;
11596;SDS011;5854;48.072;16.286;2024-02-16T08:52:37;21.40;;;8.82;;
11596;SDS011;5854;48.072;16.286;2024-02-16T08:55:05;8.77;;;7.57;;
11596;SDS011;5854;48.072;16.286;2024-02-16T08:57:34;13.98;;;8.90;;
11596;SDS011;5854;48.072;16.286;2024-02-16T09:00:02;9.63;;;7.53;;
11596;SDS011;5854;48.072;16.286;2024-02-16T09:02:30;10.70;;;7.90;;
11596;SDS011;5854;48.072;16.286;2024-02-16T09:04:58;6.78;;;5.57;;
11596;SDS011;5854;48.072;16.286;2024-02-16T09:07:25;14.60;;;7.72;;
11596;SDS011;5854;48.072;16.286;2024-02-16T09:09:53;8.73;;;6.85;;
11596;SDS011;5854;48.072;16.286;2024-02-16T09:12:21;7.53;;;6.75;;
11596;SDS011;5854;48.072;16.286;2024-02-16T09:14:50;10.82;;;7.22;;
11596;SDS011;5854;48.072;16.286;2024-02-16T09:17:17;11.32;;;7.45;;
11596;SDS011;5854;48.072;16.286;2024-02-16T09:19:45;8.82;;;7.28;;
11596;SDS011;5854;48.072;16.286;2024-02-16T09:22:13;14.40;;;8.05;;
11596;SDS011;5854;48.072;16.286;2024-02-16T09:24:40;9.82;;;7.60;;
11596;SDS011;5854;48.072;16.286;2024-02-16T09:27:12;10.93;;;7.07;;
11596;SDS011;5854;48.072;16.286;2024-02-16T09:29:40;7.70;;;6.43;;
11596;SDS011;5854;48.072;16.286;2024-02-16T09:32:08;7.43;;;5.90;;
11596;SDS011;5854;48.072;16.286;2024-02-16T09:34:36;11.95;;;6.72;;
11596;SDS011;5854;48.072;16.286;2024-02-16T09:37:03;12.95;;;6.30;;
11596;SDS011;5854;48.072;16.286;2024-02-16T09:39:30;10.50;;;7.45;;
11596;SDS011;5854;48.072;16.286;2024-02-16T09:41:59;8.23;;;5.93;;
11596;SDS011;5854;48.072;16.286;2024-02-16T09:44:27;6.60;;;5.75;;
11596;SDS011;5854;48.072;16.286;2024-02-16T09:46:56;8.90;;;5.32;;
11596;SDS011;5854;48.072;16.286;2024-02-16T09:49:28;7.85;;;3.40;;
11596;SDS011;5854;48.072;16.286;2024-02-16T09:51:55;4.75;;;3.40;;
11596;SDS011;5854;48.072;16.286;2024-02-16T09:54:29;3.45;;;2.88;;
11596;SDS011;5854;48.072;16.286;2024-02-16T09:56:59;3.65;;;3.15;;
11596;SDS011;5854;48.072;16.286;2024-02-16T09:59:26;3.17;;;2.78;;
11596;SDS011;5854;48.072;16.286;2024-02-16T10:01:59;3.00;;;2.00;;
11596;SDS011;5854;48.072;16.286;2024-02-16T10:04:28;2.28;;;1.70;;
11596;SDS011;5854;48.072;16.286;2024-02-16T10:06:55;3.33;;;1.50;;
11596;SDS011;5854;48.072;16.286;2024-02-16T10:09:23;2.65;;;1.55;;
11596;SDS011;5854;48.072;16.286;2024-02-16T10:11:51;1.77;;;1.65;;
11596;SDS011;5854;48.072;16.286;2024-02-16T10:14:18;1.45;;;1.35;;
11596;SDS011;5854;48.072;16.286;2024-02-16T10:16:46;2.67;;;1.77;;
11596;SDS011;5854;48.072;16.286;2024-02-16T10:19:17;4.25;;;1.33;;
11596;SDS011;5854;48.072;16.286;2024-02-16T10:21:45;1.40;;;1.30;;
11596;SDS011;5854;48.072;16.286;2024-02-16T10:24:13;1.88;;;1.70;;
11596;SDS011;5854;48.072;16.286;2024-02-16T10:26:40;1.10;;;1.08;;
11596;SDS011;5854;48.072;16.286;2024-02-16T10:29:08;1.92;;;1.35;;
11596;SDS011;5854;48.072;16.286;2024-02-16T10:31:37;11.60;;;2.15;;
11596;SDS011;5854;48.072;16.286;2024-02-16T10:34:04;2.63;;;1.67;;
11596;SDS011;5854;48.072;16.286;2024-02-16T10:36:35;1.60;;;1.35;;
11596;SDS011;5854;48.072;16.286;2024-02-16T10:39:05;3.22;;;1.55;;
11596;SDS011;5854;48.072;16.286;2024-02-16T10:41:36;1.98;;;1.50;;
11596;SDS011;5854;48.072;16.286;2024-02-16T10:44:07;1.70;;;1.60;;
11596;SDS011;5854;48.072;16.286;2024-02-16T10:46:35;5.20;;;1.23;;
11596;SDS011;5854;48.072;16.286;2024-02-16T10:49:03;1.60;;;1.50;;
11596;SDS011;5854;48.072;16.286;2024-02-16T10:51:34;2.85;;;1.27;;
11596;SDS011;5854;48.072;16.286;2024-02-16T10:54:05;1.50;;;1.40;;
11596;SDS011;5854;48.072;16.286;2024-02-16T10:56:34;1.63;;;1.10;;
11596;SDS011;5854;48.072;16.286;2024-02-16T10:59:02;1.75;;;0.90;;
11596;SDS011;5854;48.072;16.286;2024-02-16T11:01:36;2.25;;;1.13;;
11596;SDS011;5854;48.072;16.286;2024-02-16T11:04:05;4.60;;;1.10;;
11596;SDS011;5854;48.072;16.286;2024-02-16T11:09:29;1.15;;;1.05;;
11596;SDS011;5854;48.072;16.286;2024-02-16T11:12:01;1.55;;;1.35;;
11596;SDS011;5854;48.072;16.286;2024-02-16T11:14:35;1.17;;;1.08;;
11596;SDS011;5854;48.072;16.286;2024-02-16T11:17:07;1.25;;;1.15;;
11596;SDS011;5854;48.072;16.286;2024-02-16T11:19:36;1.45;;;1.35;;
11596;SDS011;5854;48.072;16.286;2024-02-16T11:22:03;1.23;;;1.13;;
11596;SDS011;5854;48.072;16.286;2024-02-16T11:24:35;1.33;;;1.10;;
11596;SDS011;5854;48.072;16.286;2024-02-16T11:27:03;1.30;;;1.00;;
11596;SDS011;5854;48.072;16.286;2024-02-16T11:29:32;1.52;;;1.17;;
11596;SDS011;5854;48.072;16.286;2024-02-16T11:32:00;1.00;;;1.00;;
11596;SDS011;5854;48.072;16.286;2024-02-16T11:34:29;0.80;;;0.80;;
11596;SDS011;5854;48.072;16.286;2024-02-16T11:36:56;1.23;;;1.10;;
11596;SDS011;5854;48.072;16.286;2024-02-16T11:39:25;1.85;;;1.00;;
11596;SDS011;5854;48.072;16.286;2024-02-16T11:42:05;0.95;;;0.90;;
11596;SDS011;5854;48.072;16.286;2024-02-16T11:44:36;1.23;;;0.77;;
11596;SDS011;5854;48.072;16.286;2024-02-16T11:47:05;3.78;;;1.30;;
11596;SDS011;5854;48.072;16.286;2024-02-16T11:49:37;1.27;;;1.17;;
11596;SDS011;5854;48.072;16.286;2024-02-16T11:52:05;1.75;;;0.82;;
11596;SDS011;5854;48.072;16.286;2024-02-16T11:54:34;1.25;;;1.00;;
11596;SDS011;5854;48.072;16.286;2024-02-16T11:57:02;0.93;;;0.90;;
11596;SDS011;5854;48.072;16.286;2024-02-16T11:59:31;0.82;;;0.80;;
11596;SDS011;5854;48.072;16.286;2024-02-16T12:01:59;1.40;;;1.00;;
11596;SDS011;5854;48.072;16.286;2024-02-16T12:04:28;1.35;;;1.00;;
11596;SDS011;5854;48.072;16.286;2024-02-16T12:06:56;1.23;;;0.90;;
11596;SDS011;5854;48.072;16.286;2024-02-16T12:09:26;2.03;;;0.80;;
11596;SDS011;5854;48.072;16.286;2024-02-16T12:11:54;1.20;;;1.00;;
11596;SDS011;5854;48.072;16.286;2024-02-16T12:14:23;0.73;;;0.73;;
11596;SDS011;5854;48.072;16.286;2024-02-16T12:16:51;1.02;;;0.90;;
11596;SDS011;5854;48.072;16.286;2024-02-16T12:21:51;0.63;;;0.63;;
11596;SDS011;5854;48.072;16.286;2024-02-16T12:24:19;0.80;;;0.80;;
11596;SDS011;5854;48.072;16.286;2024-02-16T12:26:47;0.80;;;0.80;;
11596;SDS011;5854;48.072;16.286;2024-02-16T12:29:15;0.77;;;0.77;;
11596;SDS011;5854;48.072;16.286;2024-02-16T12:31:44;1.23;;;0.82;;
11596;SDS011;5854;48.072;16.286;2024-02-16T12:34:17;2.13;;;0.93;;
11596;SDS011;5854;48.072;16.286;2024-02-16T12:36:44;3.00;;;0.95;;
11596;SDS011;5854;48.072;16.286;2024-02-16T12:39:12;1.98;;;1.00;;
11596;SDS011;5854;48.072;16.286;2024-02-16T12:41:41;0.73;;;0.73;;
11596;SDS011;5854;48.072;16.286;2024-02-16T12:44:09;2.75;;;0.63;;
11596;SDS011;5854;48.072;16.286;2024-02-16T12:46:36;0.82;;;0.70;;
11596;SDS011;5854;48.072;16.286;2024-02-16T12:49:05;0.73;;;0.73;;
11596;SDS011;5854;48.072;16.286;2024-02-16T12:51:32;1.05;;;0.95;;
11596;SDS011;5854;48.072;16.286;2024-02-16T12:54:00;1.90;;;1.38;;
11596;SDS011;5854;48.072;16.286;2024-02-16T12:56:28;1.27;;;1.10;;
11596;SDS011;5854;48.072;16.286;2024-02-16T12:58:56;2.35;;;1.02;;
11596;SDS011;5854;48.072;16.286;2024-02-16T13:01:25;1.30;;;1.20;;
11596;SDS011;5854;48.072;16.286;2024-02-16T13:03:53;1.52;;;1.05;;
11596;SDS011;5854;48.072;16.286;2024-02-16T13:06:21;1.92;;;1.05;;
11596;SDS011;5854;48.072;16.286;2024-02-16T13:08:49;1.65;;;1.38;;
11596;SDS011;5854;48.072;16.286;2024-02-16T13:11:16;1.60;;;1.45;;
11596;SDS011;5854;48.072;16.286;2024-02-16T13:13:44;0.70;;;0.70;;
11596;SDS011;5854;48.072;16.286;2024-02-16T13:16:11;1.35;;;1.23;;
11596;SDS011;5854;48.072;16.286;2024-02-16T13:18:38;3.83;;;1.35;;
11596;SDS011;5854;48.072;16.286;2024-02-16T13:21:06;2.75;;;1.40;;
11596;SDS011;5854;48.072;16.286;2024-02-16T13:23:34;1.80;;;1.20;;
11596;SDS011;5854;48.072;16.286;2024-02-16T13:26:02;1.30;;;1.10;;
11596;SDS011;5854;48.072;16.286;2024-02-16T13:28:29;0.77;;;0.77;;
11596;SDS011;5854;48.072;16.286;2024-02-16T13:30:56;2.05;;;1.02;;
11596;SDS011;5854;48.072;16.286;2024-02-16T13:33:24;1.30;;;1.20;;
11596;SDS011;5854;48.072;16.286;2024-02-16T13:35:51;2.10;;;1.40;;
11596;SDS011;5854;48.072;16.286;2024-02-16T13:38:19;1.80;;;1.50;;
11596;SDS011;5854;48.072;16.286;2024-02-16T13:40:48;3.13;;;1.90;;
11596;SDS011;5854;48.072;16.286;2024-02-16T13:43:15;1.70;;;1.35;;
11596;SDS011;5854;48.072;16.286;2024-02-16T13:45:49;1.40;;;1.27;;
11596;SDS011;5854;48.072;16.286;2024-02-16T13:48:18;0.80;;;0.75;;
11596;SDS011;5854;48.072;16.286;2024-02-16T13:50:46;3.35;;;1.58;;
11596;SDS011;5854;48.072;16.286;2024-02-16T13:53:14;1.70;;;1.60;;
11596;SDS011;5854;48.072;16.286;2024-02-16T13:55:42;2.13;;;1.92;;
11596;SDS011;5854;48.072;16.286;2024-02-16T13:58:11;7.00;;;2.03;;
11596;SDS011;5854;48.072;16.286;2024-02-16T14:00:39;2.95;;;2.05;;
11596;SDS011;5854;48.072;16.286;2024-02-16T14:03:06;1.88;;;1.58;;
11596;SDS011;5854;48.072;16.286;2024-02-16T14:05:36;1.70;;;1.30;;
11596;SDS011;5854;48.072;16.286;2024-02-16T14:08:03;2.42;;;1.70;;
11596;SDS011;5854;48.072;16.286;2024-02-16T14:10:32;2.17;;;1.98;;
11596;SDS011;5854;48.072;16.286;2024-02-16T14:12:59;2.30;;;1.23;;
11596;SDS011;5854;48.072;16.286;2024-02-16T14:15:28;3.40;;;1.58;;
11596;SDS011;5854;48.072;16.286;2024-02-16T14:17:56;8.90;;;1.58;;
11596;SDS011;5854;48.072;16.286;2024-02-16T14:20:23;2.83;;;1.35;;
11596;SDS011;5854;48.072;16.286;2024-02-16T14:22:51;1.88;;;1.52;;
11596;SDS011;5854;48.072;16.286;2024-02-16T14:25:18;1.75;;;1.52;;
11596;SDS011;5854;48.072;16.286;2024-02-16T14:27:46;1.70;;;1.60;;
11596;SDS011;5854;48.072;16.286;2024-02-16T14:30:13;2.05;;;1.60;;
11596;SDS011;5854;48.072;16.286;2024-02-16T14:32:42;2.15;;;1.48;;
11596;SDS011;5854;48.072;16.286;2024-02-16T14:35:09;2.88;;;1.52;;
11596;SDS011;5854;48.072;16.286;2024-02-16T14:37:37;1.63;;;1.23;;
11596;SDS011;5854;48.072;16.286;2024-02-16T14:40:05;1.90;;;1.75;;
11596;SDS011;5854;48.072;16.286;2024-02-16T14:42:35;2.38;;;1.38;;
11596;SDS011;5854;48.072;16.286;2024-02-16T14:45:03;1.65;;;1.23;;
11596;SDS011;5854;48.072;16.286;2024-02-16T14:47:34;1.83;;;1.40;;
11596;SDS011;5854;48.072;16.286;2024-02-16T14:50:03;2.45;;;1.80;;